Time;durP1;ratioP1;P1;durP2;ratioP2;P2;SDS_P1;SDS_P2;PMS_P1;PMS_P2;Temp;Humidity;BMP_temperature;BMP_pressure;BME280_temperature;BME280_humidity;BME280_pressure;Samples;Min_cycle;Max_cycle;Signal;HPM_P1;HPM_P2
2022/04/27 00:00:10;;;;;;;4.20;3.40;;;;;;;;;;5027712;28;20214;-75
2022/04/27 00:02:38;;;;;;;6.07;4.75;;;;;;;;;;5026322;28;20491;-74
2022/04/27 00:05:04;;;;;;;4.57;4.10;;;;;;;;;;5027996;28;20214;-75
2022/04/27 00:07:29;;;;;;;5.87;4.10;;;;;;;;;;5028500;28;20873;-75
2022/04/27 00:09:54;;;;;;;7.20;4.00;;;;;;;;;;5027604;28;20288;-75
2022/04/27 00:12:20;;;;;;;4.93;4.00;;;;;;;;;;5028295;28;20217;-75
2022/04/27 00:14:47;;;;;;;4.63;3.80;;;;;;;;;;5025651;28;20204;-75
2022/04/27 00:17:12;;;;;;;5.75;3.50;;;;;;;8.96;nan;99862.66;5027289;28;20484;-75
2022/04/27 00:19:38;;;;;;;5.50;4.13;;;;;;;8.93;nan;99871.50;5028123;28;20272;-75
2022/04/27 00:22:03;;;;;;;5.00;3.33;;;;;;;8.93;nan;99868.88;5028184;28;20282;-75
2022/04/27 00:24:29;;;;;;;4.73;3.43;;;;;;;8.90;nan;99869.06;5027242;28;20683;-74
2022/04/27 00:26:54;;;;;;;5.40;3.47;;;;;;;8.92;nan;99867.22;5027086;28;20202;-74
2022/04/27 00:29:19;;;;;;;6.17;3.77;;;;;;;8.92;nan;99867.22;5010684;28;20800;-75
2022/04/27 00:31:45;;;;;;;6.70;3.20;;;;;;;8.90;nan;99868.22;5027790;28;20198;-76
2022/04/27 00:34:10;;;;;;;5.13;3.57;;;;;;;8.89;nan;99869.16;5009082;28;20950;-75
2022/04/27 00:36:36;;;;;;;4.13;3.73;;;;;;;8.88;nan;99865.66;5028452;28;20220;-77
2022/04/27 00:39:02;;;;;;;4.23;3.80;;;;;;;8.85;nan;99868.44;5008603;28;20236;-75
2022/04/27 00:41:27;;;;;;;3.83;3.42;;;;;;;8.81;nan;99870.38;5026957;28;20210;-75
2022/04/27 00:43:54;;;;;;;3.50;3.20;;;;;;;8.79;nan;99874.00;5025976;28;20214;-75
2022/04/27 00:46:20;;;;;;;7.03;3.83;;;;;;;8.75;nan;99867.22;4931269;28;20227;-75
2022/04/27 00:48:46;;;;;;;4.17;3.77;;;;;;;8.66;nan;99865.09;4970912;28;20241;-75
2022/04/27 00:51:18;;;;;;;5.03;3.80;;;;;;;8.59;nan;99869.81;4969866;28;20534;-75
2022/04/27 00:53:44;;;;;;;5.63;3.33;;;;;;;8.52;nan;99864.03;4968471;28;20195;-75
2022/04/27 00:56:11;;;;;;;3.60;2.90;;;;;;;8.49;nan;99873.81;4984918;28;20200;-75
2022/04/27 00:58:37;;;;;;;5.03;3.35;;;;;;;8.45;nan;99872.28;4986007;28;20495;-76
2022/04/27 01:01:02;;;;;;;4.40;2.47;;;;;;;8.43;nan;99874.13;4988909;28;20207;-75
2022/04/27 01:03:28;;;;;;;5.13;3.78;;;;;;;8.45;nan;99873.09;4969655;28;20469;-75
2022/04/27 01:05:55;;;;;;;3.47;3.17;;;;;;;8.39;nan;99874.25;4969736;28;20330;-76
2022/04/27 01:08:21;;;;;;;3.05;2.65;;;;;;;8.34;nan;99870.16;4986237;28;20487;-75
2022/04/27 01:10:48;;;;;;;5.00;4.50;;;;;;;8.29;nan;99873.03;5002335;28;20199;-75
2022/04/27 01:13:14;;;;;;;3.13;2.83;;;;;;;8.24;nan;99880.25;4985680;28;20919;-74
2022/04/27 01:15:42;;;;;;;3.03;2.72;;;;;;;8.18;nan;99880.53;4984901;28;20210;-75
2022/04/27 01:18:11;;;;;;;5.53;3.77;;;;;;;8.12;nan;99875.63;4984636;28;20228;-75
2022/04/27 01:20:47;;;;;;;4.65;3.15;;;;;;;8.03;nan;99881.31;4969850;28;20560;-75
2022/04/27 01:23:15;;;;;;;4.57;3.50;;;;;;;7.95;nan;99886.91;4969737;28;20207;-75
2022/04/27 01:25:55;;;;;;;6.50;3.87;;;;;;;7.87;nan;99889.03;4968545;28;20215;-75
2022/04/27 01:28:26;;;;;;;4.80;3.65;;;;;;;7.83;nan;99885.75;4985742;28;20493;-74
2022/04/27 01:31:03;;;;;;;4.50;3.85;;;;;;;7.82;nan;99885.81;4988156;28;20577;-74
2022/04/27 01:33:32;;;;;;;6.90;3.70;;;;;;;7.76;nan;99884.34;4972913;28;20258;-74
2022/04/27 01:36:00;;;;;;;4.78;4.25;;;;;;;7.73;nan;99887.94;4999926;28;20281;-75
2022/04/27 01:38:27;;;;;;;7.28;4.47;;;;;;;7.71;nan;99881.09;4968065;28;20232;-75
2022/04/27 01:40:54;;;;;;;5.40;4.15;;;;;;;7.68;nan;99884.69;4970042;28;20290;-75
2022/04/27 01:43:23;;;;;;;4.88;3.83;;;;;;;7.67;nan;99879.50;4986972;28;20239;-75
2022/04/27 01:45:48;;;;;;;5.25;4.07;;;;;;;7.69;nan;99875.06;4985795;28;20235;-75
2022/04/27 01:48:14;;;;;;;5.47;3.03;;;;;;;7.66;nan;99878.69;4985711;28;20258;-75
2022/04/27 01:50:39;;;;;;;4.73;3.30;;;;;;;7.62;nan;99873.69;4996643;28;20223;-75
2022/04/27 01:55:50;;;;;;;4.18;3.40;;;;;;;7.45;nan;99875.31;4986489;28;20215;-74
2022/04/27 01:58:17;;;;;;;5.88;3.40;;;;;;;7.41;nan;99880.75;4968441;28;20290;-75
2022/04/27 02:00:46;;;;;;;5.18;4.45;;;;;;;7.36;nan;99877.50;4949057;28;20779;-75
2022/04/27 02:03:13;;;;;;;5.18;4.20;;;;;;;7.34;nan;99879.34;4935820;28;20476;-75
2022/04/27 02:05:39;;;;;;;4.90;3.85;;;;;;;7.30;nan;99878.63;4947484;28;20209;-75
2022/04/27 02:08:07;;;;;;;6.70;3.53;;;;;;;7.29;nan;99876.91;4945711;28;20665;-75
2022/04/27 02:10:32;;;;;;;4.78;3.85;;;;;;;7.31;nan;99883.78;4930590;29;20236;-75
2022/04/27 02:12:58;;;;;;;4.75;4.07;;;;;;;7.32;nan;99882.88;4946504;29;20215;-75
2022/04/27 02:15:24;;;;;;;3.57;3.10;;;;;;;7.34;nan;99880.16;4930523;29;20584;-75
2022/04/27 02:18:02;;;;;;;5.45;3.85;;;;;;;7.32;nan;99884.66;4946530;29;20235;-75
2022/04/27 02:20:27;;;;;;;5.47;3.80;;;;;;;;;;4944377;29;20212;-75
2022/04/27 02:22:53;;;;;;;4.80;3.60;;;;;;;;;;4929051;29;20701;-75
2022/04/27 02:25:19;;;;;;;5.27;3.27;;;;;;;;;;4930587;29;20211;-75
2022/04/27 02:27:44;;;;;;;6.22;4.03;;;;;;;;;;4946938;28;20231;-75
2022/04/27 02:30:10;;;;;;;5.00;3.87;;;;;;;;;;4945348;28;20559;-75
2022/04/27 02:32:36;;;;;;;4.05;3.08;;;;;;;;;;4945792;28;20670;-75
2022/04/27 02:35:02;;;;;;;5.00;3.40;;;;;;;;;;4947282;29;20208;-75
2022/04/27 02:37:27;;;;;;;5.37;4.20;;;;;;;;;;4946734;28;20773;-75
2022/04/27 02:39:57;;;;;;;6.50;4.75;;;;;;;;;;4944199;28;20229;-75
2022/04/27 02:42:23;;;;;;;4.53;4.13;;;;;;;;;;4946454;28;20201;-74
2022/04/27 02:44:48;;;;;;;4.70;3.53;;;;;;;;;;4929345;29;20571;-75
2022/04/27 02:47:16;;;;;;;5.55;4.15;;;;;;;;;;4946125;29;20590;-75
2022/04/27 02:52:57;;;;;;;5.20;4.07;;;;;;;;;;4928008;28;20209;-75
2022/04/27 02:55:26;;;;;;;3.90;3.60;;;;;;;;;;4930312;29;20671;-75
2022/04/27 02:57:51;;;;;;;5.33;3.90;;;;;;;;;;4943876;28;20602;-75
2022/04/27 03:00:17;;;;;;;3.90;3.30;;;;;;;;;;4947921;28;20233;-74
2022/04/27 03:02:43;;;;;;;4.00;3.50;;;;;;;;;;4949290;28;20807;-76
2022/04/27 03:05:09;;;;;;;7.03;4.22;;;;;;;;;;4931403;29;20694;-75
2022/04/27 03:07:35;;;;;;;6.73;5.10;;;;;;;;;;4944255;29;20248;-75
2022/04/27 03:10:01;;;;;;;5.32;4.72;;;;;;;;;;4929651;29;20221;-74
2022/04/27 03:12:26;;;;;;;5.23;4.00;;;;;;;;;;4929632;29;20255;-75
2022/04/27 03:14:53;;;;;;;6.22;4.18;;;;;;;;;;4928665;29;20769;-75
2022/04/27 03:17:18;;;;;;;5.87;4.93;;;;;;;;;;4944584;28;20324;-75
2022/04/27 03:19:44;;;;;;;6.83;4.07;;;;;;;;;;4928773;29;20224;-74
2022/04/27 03:22:12;;;;;;;6.28;3.97;;;;;;;;;;4945300;29;20240;-75
2022/04/27 03:24:38;;;;;;;8.47;3.97;;;;;;;;;;4946509;28;20205;-75
2022/04/27 03:27:10;;;;;;;6.90;4.68;;;;;;;;;;4945526;29;20247;-74
2022/04/27 03:29:35;;;;;;;5.50;4.00;;;;;;;;;;4943453;28;20263;-74
2022/04/27 03:32:01;;;;;;;6.70;3.93;;;;;;;;;;4945253;29;20219;-75
2022/04/27 03:34:27;;;;;;;6.47;3.93;;;;;;;;;;4946077;28;20201;-74
2022/04/27 03:36:54;;;;;;;10.77;4.43;;;;;;;;;;4944077;28;20408;-74
2022/04/27 03:39:20;;;;;;;6.18;4.35;;;;;;;;;;4943841;28;20256;-75
2022/04/27 03:41:46;;;;;;;5.03;4.00;;;;;;;;;;4947510;28;20608;-74
2022/04/27 03:44:12;;;;;;;7.53;4.68;;;;;;;;;;4946456;29;20212;-75
2022/04/27 03:46:37;;;;;;;6.03;4.70;;;;;;;;;;4948037;28;20264;-75
2022/04/27 03:49:03;;;;;;;6.20;5.10;;;;;;;;;;4946832;28;20661;-75
2022/04/27 03:51:29;;;;;;;7.40;4.47;;;;;;;;;;4929478;28;20261;-74
2022/04/27 03:53:54;;;;;;;5.70;4.70;;;;;;;;;;4947778;29;20567;-74
2022/04/27 03:56:19;;;;;;;6.03;4.50;;;;;;;;;;4949158;28;20204;-75
2022/04/27 03:58:49;;;;;;;7.93;5.30;;;;;;;;;;4946857;28;20209;-75
2022/04/27 04:01:17;;;;;;;6.88;4.82;;;;;;;;;;4947764;28;20201;-75
2022/04/27 04:03:44;;;;;;;4.93;4.30;;;;;;;;;;4946965;28;20216;-76
2022/04/27 04:06:09;;;;;;;5.00;4.53;;;;;;;;;;4932995;29;20300;-76
2022/04/27 04:08:39;;;;;;;5.60;5.05;;;;;;;;;;4948288;28;20224;-77
2022/04/27 04:11:04;;;;;;;5.93;4.30;;;;;;;;;;4933729;29;20247;-76
2022/04/27 04:13:49;;;;;;;6.97;5.43;;;;;;;;;;4951762;28;20201;-76
2022/04/27 04:16:22;;;;;;;9.52;5.28;;;;;;;;;;4954827;28;20689;-76
2022/04/27 04:19:06;;;;;;;6.22;3.65;;;;;;;;;;4932212;29;20825;-74
2022/04/27 04:21:43;;;;;;;7.47;5.00;;;;;;;;;;4936610;28;20521;-76
2022/04/27 04:24:22;;;;;;;5.65;4.30;;;;;;;;;;4949619;28;20259;-75
2022/04/27 04:29:33;;;;;;;6.75;4.90;;;;;;;;;;4934996;29;20201;-76
2022/04/27 04:31:59;;;;;;;5.17;4.43;;;;;;;;;;4951506;29;20219;-77
2022/04/27 04:34:33;;;;;;;7.68;5.78;;;;;;;;;;4951399;28;20482;-76
2022/04/27 04:36:59;;;;;;;5.50;4.30;;;;;;;;;;4934336;29;20220;-76
2022/04/27 04:39:24;;;;;;;6.03;4.30;;;;;;;;;;4951251;28;20327;-76
2022/04/27 04:41:50;;;;;;;5.07;4.27;;;;;;;6.26;nan;99977.09;4935302;29;20251;-76
2022/04/27 04:44:15;;;;;;;8.70;7.00;;;;;;;6.25;nan;99978.84;4952799;28;20228;-77
2022/04/27 04:47:04;;;;;;;4.95;2.80;;;;;;;6.28;nan;99973.50;4950362;28;20299;-77
2022/04/27 04:49:48;;;;;;;5.40;4.03;;;;;;;6.22;nan;99971.16;4949121;28;20298;-77
2022/04/27 04:52:33;;;;;;;6.00;3.17;;;;;;;6.15;nan;99978.34;4951134;29;20632;-73
2022/04/27 04:55:18;;;;;;;5.35;3.30;;;;;;;6.10;nan;99988.16;4949894;28;20213;-76
2022/04/27 04:58:13;;;;;;;5.70;3.67;;;;;;;6.11;nan;99981.16;4913310;29;20277;-75
2022/04/27 05:01:09;;;;;;;6.55;3.80;;;;;;;6.14;nan;99983.66;4937266;28;20209;-75
2022/04/27 05:04:13;;;;;;;4.75;3.90;;;;;;;6.16;nan;99980.06;4864998;29;20855;-76
2022/04/27 05:07:12;;;;;;;3.88;3.45;;;;;;;6.19;nan;99984.31;4880728;29;20235;-76
2022/04/27 05:10:01;;;;;;;5.45;4.25;;;;;;;6.42;nan;99978.16;4918778;28;20654;-76
2022/04/27 05:12:47;;;;;;;5.53;3.65;;;;;;;6.64;nan;99980.72;4932948;29;20215;-76
2022/04/27 05:15:32;;;;;;;3.50;3.20;;;;;;;6.65;nan;99980.69;4949021;29;20208;-76
2022/04/27 05:18:18;;;;;;;5.35;3.42;;;;;;;6.95;nan;99975.09;4949329;28;20233;-74
2022/04/27 05:21:01;;;;;;;3.05;2.35;;;;;;;7.53;nan;99971.66;4949084;28;20212;-76
2022/04/27 05:23:43;;;;;;;2.85;2.30;;;;;;;8.16;nan;99964.34;4949154;29;20216;-74
2022/04/27 05:26:26;;;;;;;7.53;3.92;;;;;;;8.83;nan;99961.97;4949348;28;20213;-76
2022/04/27 05:32:12;;;;;;;4.05;3.70;;;;;;;10.15;nan;99981.16;4951977;28;20243;-73
2022/04/27 05:34:59;;;;;;;6.78;3.80;;;;;;;10.72;nan;99978.84;4951609;28;20201;-75
2022/04/27 05:37:37;;;;;;;4.78;3.88;;;;;;;11.23;nan;99970.56;4952015;29;20251;-76
2022/04/27 05:40:27;;;;;;;5.97;4.72;;;;;;;11.81;nan;99974.03;4935498;29;20208;-75
2022/04/27 05:43:05;;;;;;;4.28;3.70;;;;;;;12.24;nan;99969.53;4954083;28;20263;-76
2022/04/27 05:45:48;;;;;;;5.10;3.40;;;;;;;12.62;nan;99980.19;4949407;28;20213;-74
2022/04/27 05:48:20;;;;;;;4.95;4.32;;;;;;;12.90;nan;99977.50;4933285;28;20252;-73
2022/04/27 05:51:05;;;;;;;5.55;4.45;;;;;;;13.04;nan;99980.91;4942192;29;20627;-76
2022/04/27 05:54:03;;;;;;;5.15;3.78;;;;;;;12.83;nan;99982.34;4937603;29;20266;-73
2022/04/27 05:56:46;;;;;;;4.18;3.78;;;;;;;12.12;nan;99984.34;4950710;29;20255;-76
2022/04/27 05:59:36;;;;;;;6.93;3.72;;;;;;;11.46;nan;99998.09;4949235;29;20608;-76
2022/04/27 06:02:22;;;;;;;5.70;4.28;;;;;;;11.03;nan;99991.00;4930126;29;20197;-76
2022/04/27 06:04:49;;;;;;;4.93;4.25;;;;;;;10.62;nan;100001.31;4935097;29;20216;-76
2022/04/27 06:07:14;;;;;;;4.57;3.50;;;;;;;10.38;nan;99993.88;4947994;28;20217;-75
2022/04/27 06:09:40;;;;;;;4.47;4.07;;;;;;;10.18;nan;100009.91;4942493;28;20201;-76
2022/04/27 06:12:08;;;;;;;6.60;4.20;;;;;;;10.14;nan;100006.56;4943357;29;20300;-73
2022/04/27 06:14:36;;;;;;;5.57;4.30;;;;;;;10.20;nan;100008.00;4944859;29;20211;-76
2022/04/27 06:17:04;;;;;;;9.40;5.18;;;;;;;10.13;nan;100014.56;4940072;28;20197;-76
2022/04/27 06:19:30;;;;;;;5.43;4.60;;;;;;;9.97;nan;100004.88;4925951;29;20254;-73
2022/04/27 06:21:57;;;;;;;6.32;5.38;;;;;;;9.94;nan;100004.22;4926867;29;20204;-75
2022/04/27 06:24:24;;;;;;;5.70;5.13;;;;;;;10.15;nan;100004.78;4942818;29;20690;-76
2022/04/27 06:26:54;;;;;;;5.78;4.65;;;;;;;10.49;nan;100000.31;4924906;28;20213;-74
2022/04/27 06:29:20;;;;;;;6.00;3.73;;;;;;;11.18;nan;100005.03;4926039;28;20264;-76
2022/04/27 06:31:48;;;;;;;5.93;4.45;;;;;;;11.84;nan;99997.50;4939857;28;20483;-76
2022/04/27 06:34:15;;;;;;;4.80;4.28;;;;;;;12.07;nan;99996.94;4940951;28;20231;-73
2022/04/27 06:36:41;;;;;;;6.60;4.53;;;;;;;12.08;nan;99998.63;4942719;28;20272;-76
2022/04/27 06:39:15;;;;;;;5.22;4.10;;;;;;;11.98;nan;99997.50;4943174;28;20216;-76
2022/04/27 06:41:42;;;;;;;4.97;4.25;;;;;;;11.94;nan;99998.66;4941277;28;20268;-76
2022/04/27 06:44:26;;;;;;;7.50;4.70;;;;;;;11.84;nan;100003.63;4939500;28;20249;-75
2022/04/27 06:47:10;;;;;;;5.78;3.92;;;;;;;11.65;nan;99998.66;4943441;28;20384;-76
2022/04/27 06:49:54;;;;;;;4.85;3.38;;;;;;;11.56;nan;99993.09;4948983;28;20286;-75
2022/04/27 06:52:42;;;;;;;5.65;4.65;;;;;;;11.51;nan;100006.56;4944546;28;20216;-75
2022/04/27 06:55:27;;;;;;;6.95;6.07;;;;;;;11.48;nan;100007.59;4945266;28;20301;-76
2022/04/27 06:58:21;;;;;;;5.13;4.13;;;;;;;11.43;nan;100004.38;4942000;28;20767;-75
2022/04/27 07:00:59;;;;;;;5.50;4.50;;;;;;;11.34;nan;100006.72;4923954;28;20220;-76
2022/04/27 07:03:25;;;;;;;6.90;5.50;;;;;;;11.21;nan;100012.72;4939136;28;20228;-75
2022/04/27 07:05:50;;;;;;;13.63;6.07;;;;;;;11.24;nan;99999.41;4942165;28;20223;-73
2022/04/27 07:08:16;;;;;;;6.13;5.53;;;;;;;11.50;nan;100010.09;4938107;28;20392;-75
2022/04/27 07:10:42;;;;;;;7.50;5.30;;;;;;;12.02;nan;100006.91;4940007;28;20236;-74
2022/04/27 07:13:07;;;;;;;6.13;5.27;;;;;;;12.74;nan;100004.03;4939221;28;20209;-76
2022/04/27 07:15:33;;;;;;;5.63;4.93;;;;;;;13.46;nan;99996.53;4937599;28;20483;-75
2022/04/27 07:17:58;;;;;;;5.60;5.10;;;;;;;14.19;nan;99998.41;4937441;28;20220;-73
2022/04/27 07:20:24;;;;;;;5.70;4.87;;;;;;;14.82;nan;99991.13;4937305;28;20219;-74
2022/04/27 07:22:49;;;;;;;7.47;5.23;;;;;;;15.51;nan;99985.03;4936547;28;20220;-74
2022/04/27 07:25:18;;;;;;;6.50;4.50;;;;;;;16.06;nan;99986.81;4939289;28;20247;-73
2022/04/27 07:27:43;;;;;;;3.70;3.20;;;;;;;16.64;nan;99991.00;4937123;28;20256;-73
2022/04/27 07:30:09;;;;;;;5.00;3.50;;;;;;;17.13;nan;99974.47;4936434;28;20203;-73
2022/04/27 07:32:35;;;;;;;4.35;3.85;;;;;;;17.24;nan;99982.34;4937738;28;20183;-75
2022/04/27 07:35:00;;;;;;;3.87;3.50;;;;;;;17.25;nan;99985.84;4937904;28;20187;-75
2022/04/27 07:37:26;;;;;;;4.17;3.43;;;;;;;17.42;nan;99985.25;4941025;28;20215;-72
2022/04/27 07:39:51;;;;;;;6.10;3.90;;;;;;;17.78;nan;99982.19;4940706;28;20269;-75
2022/04/27 07:42:17;;;;;;;6.07;4.00;;;;;;;18.01;nan;99983.69;4941606;28;20247;-72
2022/04/27 07:44:42;;;;;;;7.20;4.63;;;;;;;18.27;nan;99991.13;4944209;28;20193;-75
2022/04/27 07:47:09;;;;;;;5.17;4.33;;;;;;;18.60;nan;99989.91;4941533;28;20209;-75
2022/04/27 07:49:34;;;;;;;5.77;4.43;;;;;;;18.84;nan;99992.16;4945795;28;20530;-76
2022/04/27 07:52:00;;;;;;;5.60;5.00;;;;;;;18.62;nan;99993.28;4948384;28;20444;-75
2022/04/27 07:54:25;;;;;;;8.77;4.30;;;;;;;18.73;nan;100001.09;4943655;28;20188;-74
2022/04/27 07:56:51;;;;;;;5.37;3.93;;;;;;;18.98;nan;99993.56;4942783;28;20962;-76
2022/04/27 07:59:16;;;;;;;4.67;3.97;;;;;;;19.21;nan;99994.91;4941313;28;20649;-75
2022/04/27 08:01:41;;;;;;;5.07;3.93;;;;;;;19.26;nan;100001.66;4946641;29;20267;-75
2022/04/27 08:04:07;;;;;;;5.10;3.97;;;;;;;19.18;nan;99995.22;4944435;28;20229;-76
2022/04/27 08:06:33;;;;;;;5.20;4.70;;;;;;;19.26;nan;99996.31;4945142;28;20228;-75
2022/04/27 08:08:58;;;;;;;5.47;4.20;;;;;;;19.61;nan;99991.16;4948517;29;20487;-76
2022/04/27 08:11:24;;;;;;;3.53;3.13;;;;;;;19.58;nan;100006.59;4949418;29;20501;-76
2022/04/27 08:13:49;;;;;;;3.07;2.77;;;;;;;19.03;nan;100009.94;4944498;29;20296;-75
2022/04/27 08:16:15;;;;;;;3.30;2.87;;;;;;;18.70;nan;100000.56;4942837;28;20219;-74
2022/04/27 08:18:40;;;;;;;4.07;3.67;;;;;;;18.78;nan;100001.56;4943487;28;20228;-75
2022/04/27 08:21:15;;;;;;;3.80;3.43;;;;;;;18.60;nan;100000.53;4944805;29;20209;-76
2022/04/27 08:23:43;;;;;;;3.83;2.50;;;;;;;18.28;nan;100001.66;4943449;28;20515;-75
2022/04/27 08:26:10;;;;;;;3.40;3.10;;;;;;;18.21;nan;99997.84;4942230;28;20458;-74
2022/04/27 08:28:39;;;;;;;5.50;4.67;;;;;;;18.25;nan;100001.91;4944398;28;20549;-75
2022/04/27 08:31:09;;;;;;;5.55;4.05;;;;;;;17.81;nan;100000.53;4943005;28;20851;-76
2022/04/27 08:33:35;;;;;;;3.97;2.85;;;;;;;17.27;nan;100007.78;4945436;29;20234;-74
2022/04/27 08:36:03;;;;;;;3.80;3.27;;;;;;;16.78;nan;100004.81;4946389;28;20190;-75
2022/04/27 08:38:29;;;;;;;4.10;3.70;;;;;;;16.54;nan;100009.47;4949397;28;20544;-75
2022/04/27 08:40:55;;;;;;;4.00;3.60;;;;;;;16.41;nan;100012.25;4948712;29;20219;-75
2022/04/27 08:43:21;;;;;;;4.47;4.07;;;;;;;16.50;nan;100008.00;4947340;28;20477;-74
2022/04/27 08:45:47;;;;;;;3.63;3.05;;;;;;;16.55;nan;100014.66;4945547;29;20453;-75
2022/04/27 08:48:17;;;;;;;3.53;3.10;;;;;;;16.48;nan;100013.47;4945583;28;20695;-75
2022/04/27 08:50:44;;;;;;;5.65;3.65;;;;;;;16.43;nan;100012.16;4945429;29;20217;-75
2022/04/27 08:53:10;;;;;;;4.00;3.42;;;;;;;16.47;nan;100009.13;4944197;28;20211;-74
2022/04/27 08:55:36;;;;;;;4.57;3.80;;;;;;;16.71;nan;100008.06;4945659;28;20265;-75
2022/04/27 08:58:13;;;;;;;3.97;3.58;;;;;;;16.74;nan;100015.75;4944514;28;20328;-74
2022/04/27 09:00:39;;;;;;;3.65;3.35;;;;;;;16.93;nan;100017.75;4944621;28;20594;-74
2022/04/27 09:03:23;;;;;;;4.45;4.05;;;;;;;17.04;nan;100012.41;4945511;29;20213;-74
2022/04/27 09:06:00;;;;;;;4.95;3.88;;;;;;;16.95;nan;100011.34;4945522;29;20215;-75
2022/04/27 09:08:35;;;;;;;4.10;3.15;;;;;;;16.91;nan;100001.97;4949029;29;20359;-75
2022/04/27 09:11:26;;;;;;;4.63;3.75;;;;;;;16.88;nan;100014.69;4951401;28;20209;-75
2022/04/27 09:13:53;;;;;;;3.97;3.60;;;;;;;16.62;nan;100008.84;4997738;28;20340;-74
2022/04/27 09:16:21;;;;;;;5.05;4.20;;;;;;;16.64;nan;100005.09;5009289;28;20193;-74
2022/04/27 09:21:58;;;;;;;4.82;4.18;;;;;;;16.99;nan;99996.88;5008918;28;20265;-74
2022/04/27 09:24:25;;;;;;;3.97;3.65;;;;;;;17.17;nan;99998.94;5009294;28;20183;-75
2022/04/27 09:27:03;;;;;;;3.80;3.27;;;;;;;17.35;nan;100002.66;5008608;28;20182;-75
2022/04/27 09:29:29;;;;;;;5.07;3.17;;;;;;;17.32;nan;100002.94;5008372;28;20494;-74
2022/04/27 09:31:57;;;;;;;3.50;2.47;;;;;;;16.94;nan;100009.69;5007575;28;20182;-74
2022/04/27 09:34:29;;;;;;;3.30;3.00;;;;;;;16.94;nan;99999.06;5010634;28;20490;-75
2022/04/27 09:37:16;;;;;;;3.30;2.60;;;;;;;17.12;nan;100002.00;5010381;28;20216;-75
2022/04/27 09:39:43;;;;;;;3.97;3.00;;;;;;;17.16;nan;100003.41;5008025;28;20247;-75
2022/04/27 09:42:12;;;;;;;2.53;1.90;;;;;;;17.23;nan;100006.41;5007801;28;20284;-75
2022/04/27 09:44:39;;;;;;;3.37;2.97;;;;;;;17.34;nan;100000.16;5009811;28;20181;-75
2022/04/27 09:47:06;;;;;;;2.10;1.83;;;;;;;17.43;nan;99999.38;5008338;28;20429;-75
2022/04/27 09:49:39;;;;;;;3.60;3.30;;;;;;;17.54;nan;100001.94;5009308;28;20827;-74
2022/04/27 09:52:06;;;;;;;3.20;2.60;;;;;;;17.63;nan;100006.47;5009482;28;20327;-75
2022/04/27 09:54:36;;;;;;;3.33;2.27;;;;;;;17.72;nan;99996.84;5008248;28;20442;-74
2022/04/27 09:57:08;;;;;;;4.90;3.73;;;;;;;17.79;nan;100010.44;5009176;28;20489;-75
2022/04/27 09:59:36;;;;;;;3.87;3.37;;;;;;;17.90;nan;99997.94;5007283;28;20472;-75
2022/04/27 10:02:10;;;;;;;4.67;4.10;;;;;;;17.99;nan;99998.09;5007660;28;20599;-75
2022/04/27 10:04:38;;;;;;;5.27;3.70;;;;;;;17.84;nan;100000.25;5009817;28;20861;-75
2022/04/27 10:07:05;;;;;;;5.77;4.10;;;;;;;17.81;nan;99987.25;5007646;28;20449;-75
2022/04/27 10:09:32;;;;;;;3.83;2.93;;;;;;;17.76;nan;99986.78;5010029;28;20840;-75
2022/04/27 10:12:00;;;;;;;6.27;3.53;;;;;;;17.59;nan;99998.88;5009268;28;20430;-75
2022/04/27 10:14:26;;;;;;;4.30;3.60;;;;;;;17.47;nan;99995.44;5008131;28;20422;-75
2022/04/27 10:16:54;;;;;;;3.13;2.87;;;;;;;17.43;nan;99992.22;5007615;28;20444;-75
2022/04/27 10:19:20;;;;;;;5.30;3.83;;;;;;;17.39;nan;99993.47;5008480;28;20460;-74
2022/04/27 10:21:57;;;;;;;5.73;4.03;;;;;;;17.43;nan;99988.75;5009924;28;20442;-75
2022/04/27 10:24:35;;;;;;;5.80;4.80;;;;;;;17.55;nan;99986.81;5009978;28;20441;-75
2022/04/27 10:27:18;;;;;;;4.97;3.97;;;;;;;17.68;nan;99982.13;5006785;28;20457;-74
2022/04/27 10:29:57;;;;;;;5.10;4.30;;;;;;;17.75;nan;99977.13;5007100;28;20436;-75
2022/04/27 10:32:48;;;;;;;3.50;3.20;;;;;;;17.84;nan;99973.69;5006292;28;20470;-75
2022/04/27 10:35:14;;;;;;;4.10;3.70;;;;;;;17.85;nan;99978.88;5005206;28;20434;-75
2022/04/27 10:37:59;;;;;;;5.03;4.13;;;;;;;17.87;nan;99978.72;5005120;28;21190;-75
2022/04/27 10:40:29;;;;;;;4.73;3.60;;;;;;;17.84;nan;99982.50;5008567;28;20470;-74
2022/04/27 10:43:03;;;;;;;3.97;3.63;;;;;;;17.85;nan;99978.88;5005495;28;20442;-75
2022/04/27 10:45:28;;;;;;;4.80;4.17;;;;;;;17.89;nan;99980.28;5007287;28;20968;-75
2022/04/27 10:47:54;;;;;;;5.13;3.33;;;;;;;17.90;nan;99979.31;5007568;28;20453;-75
2022/04/27 10:50:25;;;;;;;5.00;3.80;;;;;;;17.99;nan;99979.47;5008557;28;20207;-75
2022/04/27 10:52:53;;;;;;;4.20;3.40;;;;;;;17.87;nan;99974.25;5006808;28;20191;-75
2022/04/27 10:55:42;;;;;;;4.53;4.07;;;;;;;17.91;nan;99981.00;5007379;28;20427;-76
2022/04/27 10:58:28;;;;;;;9.07;5.20;;;;;;;18.02;nan;99976.56;5006039;28;20474;-75
2022/04/27 11:01:02;;;;;;;4.87;3.63;;;;;;;18.04;nan;99975.44;5009398;28;20445;-75
2022/04/27 11:03:35;;;;;;;4.83;4.33;;;;;;;18.04;nan;99972.78;5006596;28;20639;-76
2022/04/27 11:06:09;;;;;;;7.93;4.10;;;;;;;18.04;nan;99974.59;5007287;28;21186;-76
2022/04/27 11:09:02;;;;;;;3.83;3.53;;;;;;;18.09;nan;99975.00;5006671;28;20461;-75
2022/04/27 11:11:28;;;;;;;6.07;4.10;;;;;;;18.14;nan;99975.44;5003530;28;20487;-74
2022/04/27 11:14:09;;;;;;;3.90;3.23;;;;;;;18.08;nan;99979.50;5006810;28;20973;-75
2022/04/27 11:16:47;;;;;;;4.50;3.30;;;;;;;18.01;nan;99965.09;5006278;28;20434;-75
2022/04/27 11:19:13;;;;;;;3.90;3.60;;;;;;;17.95;nan;99975.41;4987789;28;20434;-74
2022/04/27 11:21:38;;;;;;;4.00;3.60;;;;;;;17.94;nan;99961.28;5005381;28;20493;-74
2022/04/27 11:24:07;;;;;;;4.20;3.80;;;;;;;17.94;nan;99968.41;5005189;28;20187;-75
2022/04/27 11:26:47;;;;;;;3.20;2.80;;;;;;;17.91;nan;99962.38;5005136;28;20656;-75
2022/04/27 11:29:14;;;;;;;3.70;3.33;;;;;;;17.87;nan;99963.63;5005376;28;20449;-74
2022/04/27 11:31:42;;;;;;;3.07;2.83;;;;;;;17.82;nan;99957.91;5006266;28;20446;-75
2022/04/27 11:34:24;;;;;;;3.10;2.80;;;;;;;17.84;nan;99960.41;5005589;28;20978;-74
2022/04/27 11:36:51;;;;;;;3.50;3.13;;;;;;;17.83;nan;99958.75;5006841;28;21004;-76
2022/04/27 11:39:20;;;;;;;3.03;2.73;;;;;;;17.81;nan;99953.53;5006331;28;20525;-75
2022/04/27 11:41:46;;;;;;;2.23;1.93;;;;;;;17.81;nan;99950.88;5008396;28;20438;-75
2022/04/27 11:44:19;;;;;;;4.60;2.57;;;;;;;17.79;nan;99950.16;5008992;28;20817;-75
2022/04/27 11:46:44;;;;;;;2.47;2.27;;;;;;;17.74;nan;99949.72;5008188;28;20195;-74
2022/04/27 11:49:12;;;;;;;2.73;2.30;;;;;;;17.76;nan;99947.75;5006939;28;20457;-75
2022/04/27 11:51:38;;;;;;;3.00;2.33;;;;;;;17.85;nan;99941.69;5007012;28;20179;-75
2022/04/27 11:54:03;;;;;;;2.40;2.20;;;;;;;17.96;nan;99937.19;5006684;28;20482;-75
2022/04/27 11:56:36;;;;;;;2.70;2.40;;;;;;;17.95;nan;99956.78;5006665;28;20187;-75
2022/04/27 11:59:08;;;;;;;4.17;2.20;;;;;;;17.86;nan;99953.16;5004162;28;20306;-75
2022/04/27 12:01:33;;;;;;;1.80;1.57;;;;;;;17.87;nan;99949.50;5002267;28;20483;-76
2022/04/27 12:03:59;;;;;;;1.80;1.70;;;;;;;17.96;nan;99945.19;5000019;28;20495;-78
2022/04/27 12:06:28;;;;;;;3.37;2.60;;;;;;;18.08;nan;99944.09;5000973;28;20206;-74
2022/04/27 12:08:59;;;;;;;2.47;1.67;;;;;;;18.19;nan;99943.13;4999190;28;20811;-76
2022/04/27 12:11:24;;;;;;;2.57;1.80;;;;;;;18.32;nan;99936.56;4998809;28;20450;-76
2022/04/27 12:13:52;;;;;;;2.13;1.93;;;;;;;18.58;nan;99933.34;5001475;28;20442;-76
2022/04/27 12:16:18;;;;;;;1.47;1.37;;;;;;;18.63;nan;99935.56;4998713;28;20955;-76
2022/04/27 12:18:51;;;;;;;2.60;2.33;;;;;;;18.45;nan;99927.47;5000856;28;20469;-77
2022/04/27 12:21:26;;;;;;;1.80;1.70;;;;;;;18.32;nan;99931.25;5000756;28;20248;-76
2022/04/27 12:23:56;;;;;;;1.80;1.40;;;;;;;18.21;nan;99936.69;5000944;28;20797;-76
2022/04/27 12:26:25;;;;;;;2.20;2.00;;;;;;;18.22;nan;99932.22;4996823;28;21177;-75
2022/04/27 12:28:51;;;;;;;1.93;1.47;;;;;;;18.26;nan;99918.50;4998998;28;20442;-76
2022/04/27 12:31:21;;;;;;;1.87;1.20;;;;;;;18.24;nan;99925.78;5000148;28;20467;-75
2022/04/27 12:33:48;;;;;;;2.00;1.60;;;;;;;18.07;nan;99924.66;5000292;28;20195;-74
2022/04/27 12:39:13;;;;;;;1.50;1.40;;;;;;;18.05;nan;99921.28;5003308;28;20555;-76
2022/04/27 12:41:42;;;;;;;1.70;1.43;;;;;;;18.16;nan;99900.88;5005589;28;20470;-76
2022/04/27 12:44:11;;;;;;;1.57;1.40;;;;;;;18.25;nan;99914.16;5003608;28;20192;-74
2022/04/27 12:46:53;;;;;;;1.40;1.30;;;;;;;18.46;nan;99915.84;5005761;28;20450;-76
2022/04/27 12:49:27;;;;;;;1.53;1.10;;;;;;;18.62;nan;99902.81;5004846;28;20521;-76
2022/04/27 12:51:53;;;;;;;1.57;1.40;;;;;;;18.48;nan;99909.41;5008207;28;20523;-74
2022/04/27 12:54:19;;;;;;;1.50;1.40;;;;;;;18.35;nan;99909.69;5006064;28;20496;-74